Al Khuwair — C6VM6 — position and weather

sailwx.info

Track history (hours):
 
Tides and Currents Weather Stations Pressure Air Temp Water Temp Dewpoint Dewpoint Depression Visibility Wind Speed Wind Dir Waves Ship Positions

Al Khuwair

Last reported at 2016-Feb-12 08:33 UTC. Time now 2016-Feb-12 09:51 UTC.
Position N 01°14' E 103°55'.

Length 315 m; draft 9.4 m.

Type: Ship (hazmat cat A). MMSI: 311000140.

Date/timePositionNaut miles runAvg speedWind from/ knotsBaromVisibWave heightAir tempDewpointWater temp
2016-Feb-12 08:33N 01°14' E 103°55'7 6.4
2016-Feb-12 07:32N 01°15' E 104°01'  
2016-Feb-05 12:17N 35°11' E 139°46'811.6
2016-Feb-05 11:33N 35°19' E 139°43'6 5.5
2016-Feb-05 10:34N 35°22' E 139°48'2 0.1
2016-Feb-04 04:23N 35°21' E 139°49'2 1.8
2016-Feb-04 03:33N 35°22' E 139°48'5 4.9
2016-Feb-04 02:33N 35°19' E 139°44'11 9.9
2016-Feb-04 01:29N 35°08' E 139°46'  
Track history (hours):
 
Tides and Currents Weather Stations Pressure Air Temp Water Temp Dewpoint Dewpoint Depression Visibility Wind Speed Wind Dir Waves Ship Positions

Al Khuwair

Last reported at 2016-Feb-12 08:33 UTC. Time now 2016-Feb-12 09:51 UTC.
Position N 01°14' E 103°55'.

Length 315 m; draft 9.4 m.

Type: Ship (hazmat cat A). MMSI: 311000140.

Date/timePositionNaut miles runAvg speedWind from/ knotsBaromVisibWave heightAir tempDewpointWater temp
2016-Feb-12 08:33N 01°14' E 103°55'7 6.4
2016-Feb-12 07:32N 01°15' E 104°01'  
2016-Feb-05 12:17N 35°11' E 139°46'811.6
2016-Feb-05 11:33N 35°19' E 139°43'6 5.5
2016-Feb-05 10:34N 35°22' E 139°48'2 0.1
2016-Feb-04 04:23N 35°21' E 139°49'2 1.8
2016-Feb-04 03:33N 35°22' E 139°48'5 4.9
2016-Feb-04 02:33N 35°19' E 139°44'11 9.9
2016-Feb-04 01:29N 35°08' E 139°46'  

Dump ship's entire track history